createdAt,value
2018-11-06T00:00:48.993Z,8.45
2018-11-06T00:03:24.095Z,8.45
2018-11-06T00:05:53.163Z,8.59
2018-11-06T00:08:21.830Z,8.61
2018-11-06T00:10:50.976Z,8.62
2018-11-06T00:13:20.175Z,8.38
2018-11-06T00:15:49.471Z,8.61
2018-11-06T00:18:19.118Z,8.40
2018-11-06T00:20:47.711Z,8.21
2018-11-06T00:23:16.868Z,8.10
2018-11-06T00:25:45.481Z,8.20
2018-11-06T00:28:14.034Z,8.24
2018-11-06T00:30:42.650Z,8.23
2018-11-06T00:33:11.243Z,8.23
2018-11-06T00:35:39.616Z,8.14
2018-11-06T00:38:08.396Z,8.17
2018-11-06T00:40:36.832Z,8.24
2018-11-06T00:43:05.314Z,8.30
2018-11-06T00:45:34.250Z,8.17
2018-11-06T00:48:02.981Z,8.28
2018-11-06T00:50:31.828Z,8.09
2018-11-06T00:53:00.602Z,8.06
2018-11-06T00:55:28.998Z,8.22
2018-11-06T00:57:57.439Z,7.93
2018-11-06T01:00:26.128Z,7.78
2018-11-06T01:02:55.575Z,7.91
2018-11-06T01:05:24.899Z,7.93
2018-11-06T01:07:53.551Z,7.92
2018-11-06T01:10:21.959Z,8.04
2018-11-06T01:12:51.065Z,7.78
2018-11-06T01:15:19.501Z,7.76
2018-11-06T01:17:48.172Z,7.82
2018-11-06T01:20:17.765Z,7.62
2018-11-06T01:22:46.707Z,7.63
2018-11-06T01:25:15.635Z,7.79
2018-11-06T01:27:44.734Z,7.83
2018-11-06T01:30:17.307Z,7.78
2018-11-06T01:32:46.130Z,7.76
2018-11-06T01:35:15.641Z,7.71
2018-11-06T01:37:45.167Z,7.66
2018-11-06T01:40:15.823Z,7.49
2018-11-06T01:42:45.076Z,7.72
2018-11-06T01:45:14.812Z,7.56
2018-11-06T01:47:43.147Z,7.55
2018-11-06T01:50:16.108Z,7.68
2018-11-06T01:52:47.865Z,7.80
2018-11-06T01:55:18.586Z,7.76
2018-11-06T01:57:53.057Z,7.86
2018-11-06T02:00:24.129Z,7.72
2018-11-06T02:02:54.560Z,7.41
2018-11-06T02:05:26.472Z,7.47
2018-11-06T02:07:55.313Z,7.39
2018-11-06T02:10:23.759Z,7.28
2018-11-06T02:12:52.239Z,7.27
2018-11-06T02:15:21.023Z,7.57
2018-11-06T02:17:49.797Z,7.40
2018-11-06T02:20:18.295Z,7.62
2018-11-06T02:22:47.807Z,7.71
2018-11-06T02:25:16.303Z,7.68
2018-11-06T02:27:45.323Z,7.70
2018-11-06T02:30:15.804Z,7.72
2018-11-06T02:32:45.280Z,7.72
2018-11-06T02:35:14.455Z,7.64
2018-11-06T02:37:43.549Z,7.52
2018-11-06T02:40:14.147Z,7.63
2018-11-06T02:42:43.486Z,7.56
2018-11-06T02:45:12.836Z,7.64
2018-11-06T02:47:41.815Z,7.39
2018-11-06T02:50:11.737Z,7.25
2018-11-06T02:52:40.581Z,7.28
2018-11-06T02:55:09.415Z,7.38
2018-11-06T02:57:37.903Z,7.46
2018-11-06T03:00:09.615Z,7.47
2018-11-06T03:02:38.114Z,7.49
2018-11-06T03:05:07.688Z,7.45
2018-11-06T03:07:37.204Z,7.61
2018-11-06T03:10:06.787Z,7.65
2018-11-06T03:12:35.320Z,7.43
2018-11-06T03:15:04.527Z,7.06
2018-11-06T03:17:32.972Z,7.10
2018-11-06T03:20:02.588Z,6.89
2018-11-06T03:22:33.838Z,6.72
2018-11-06T03:25:02.534Z,6.68
2018-11-06T03:27:31.056Z,6.48
2018-11-06T03:30:08.499Z,6.52
2018-11-06T03:32:37.196Z,6.51
2018-11-06T03:35:07.465Z,6.53
2018-11-06T03:37:36.390Z,6.71
2018-11-06T03:40:05.667Z,6.67
2018-11-06T03:42:34.599Z,6.68
2018-11-06T03:45:04.163Z,6.68
2018-11-06T03:47:32.541Z,7.09
2018-11-06T03:50:01.640Z,7.01
2018-11-06T03:52:30.492Z,7.04
2018-11-06T03:54:59.007Z,7.06
2018-11-06T03:57:27.752Z,6.71
2018-11-06T03:59:56.189Z,6.59
2018-11-06T04:02:25.255Z,6.49
2018-11-06T04:04:54.545Z,6.37
2018-11-06T04:07:22.979Z,6.20
2018-11-06T04:09:51.620Z,6.17
2018-11-06T04:12:20.093Z,6.21
2018-11-06T04:14:48.578Z,6.41
2018-11-06T04:17:19.619Z,6.49
2018-11-06T04:19:48.172Z,6.32
2018-11-06T04:22:17.423Z,6.26
2018-11-06T04:24:45.798Z,6.23
2018-11-06T04:27:14.284Z,6.25
2018-11-06T04:29:42.716Z,6.20
2018-11-06T04:32:11.155Z,6.47
2018-11-06T04:34:39.561Z,6.44
2018-11-06T04:37:07.935Z,6.38
2018-11-06T04:39:36.811Z,6.61
2018-11-06T04:42:05.556Z,6.48
2018-11-06T04:44:33.973Z,6.39
2018-11-06T04:47:03.508Z,6.42
2018-11-06T04:49:33.103Z,6.31
2018-11-06T04:52:01.474Z,6.28
2018-11-06T04:54:30.877Z,6.41
2018-11-06T04:56:59.486Z,6.24
2018-11-06T04:59:27.939Z,6.25
2018-11-06T05:01:56.449Z,6.19
2018-11-06T05:04:24.848Z,6.14
2018-11-06T05:06:53.230Z,6.02
2018-11-06T05:09:22.885Z,6.01
2018-11-06T05:11:51.284Z,6.02
2018-11-06T05:14:20.014Z,5.98
2018-11-06T05:16:48.686Z,5.87
2018-11-06T05:19:17.061Z,5.90
2018-11-06T05:21:45.939Z,6.02
2018-11-06T05:24:14.903Z,6.01
2018-11-06T05:26:44.303Z,5.94
2018-11-06T05:29:13.295Z,5.93
2018-11-06T05:31:41.671Z,5.91
2018-11-06T05:34:10.050Z,5.96
2018-11-06T05:36:38.511Z,5.91
2018-11-06T05:39:10.042Z,6.14
2018-11-06T05:41:38.724Z,6.35
2018-11-06T05:44:07.185Z,6.54
2018-11-06T05:46:35.633Z,6.57
2018-11-06T05:51:43.344Z,6.29
2018-11-06T05:54:12.327Z,6.50
2018-11-06T05:56:40.708Z,6.52
2018-11-06T05:59:09.630Z,6.50
2018-11-06T06:01:37.990Z,6.59
2018-11-06T06:04:07.298Z,6.31
2018-11-06T06:06:35.724Z,6.12
2018-11-06T06:09:06.627Z,5.91
2018-11-06T06:11:35.067Z,5.87
2018-11-06T06:14:03.465Z,5.71
2018-11-06T06:16:31.895Z,5.75
2018-11-06T06:19:00.344Z,5.74
2018-11-06T06:21:29.674Z,5.63
2018-11-06T06:23:58.440Z,6.00
2018-11-06T06:26:27.382Z,5.96
2018-11-06T06:28:57.642Z,5.90
2018-11-06T06:31:28.989Z,5.94
2018-11-06T06:34:01.313Z,6.00
2018-11-06T06:36:32.542Z,6.02
2018-11-06T06:39:03.890Z,6.18
2018-11-06T06:41:34.511Z,6.42
2018-11-06T06:44:05.459Z,6.64
2018-11-06T06:46:36.087Z,6.66
2018-11-06T06:49:06.940Z,6.41
2018-11-06T06:51:37.345Z,6.38
2018-11-06T06:54:08.377Z,6.36
2018-11-06T06:56:39.916Z,6.47
2018-11-06T06:59:09.617Z,6.77
2018-11-06T07:01:40.509Z,7.06
2018-11-06T07:04:11.022Z,7.03
2018-11-06T07:06:41.416Z,7.10
2018-11-06T07:09:12.157Z,7.00
2018-11-06T07:11:42.568Z,7.12
2018-11-06T07:14:13.992Z,7.14
2018-11-06T07:16:44.674Z,7.23
2018-11-06T07:19:15.076Z,7.39
2018-11-06T07:21:46.357Z,7.58
2018-11-06T07:24:16.921Z,7.56
2018-11-06T07:26:47.325Z,7.68
2018-11-06T07:29:17.809Z,7.72
2018-11-06T07:31:48.218Z,7.75
2018-11-06T07:34:19.372Z,8.02
2018-11-06T07:36:49.540Z,8.13
2018-11-06T07:39:20.320Z,8.40
2018-11-06T07:41:50.788Z,8.69
2018-11-06T07:44:22.121Z,8.46
2018-11-06T07:46:52.209Z,8.24
2018-11-06T07:49:22.524Z,8.16
2018-11-06T07:51:52.413Z,8.47
2018-11-06T07:54:22.750Z,8.78
2018-11-06T07:56:52.725Z,8.96
2018-11-06T07:59:23.387Z,9.26
2018-11-06T08:01:54.822Z,9.35
2018-11-06T08:04:25.687Z,9.66
2018-11-06T08:06:56.795Z,9.72
2018-11-06T08:09:27.527Z,9.91
2018-11-06T08:12:12.793Z,9.87
2018-11-06T08:14:43.498Z,10.00
2018-11-06T08:17:14.302Z,10.50
2018-11-06T08:19:44.777Z,10.60
2018-11-06T08:22:15.271Z,10.63
2018-11-06T08:24:46.089Z,10.67
2018-11-06T08:27:16.858Z,11.08
2018-11-06T08:29:47.754Z,11.37
2018-11-06T08:32:19.095Z,11.15
2018-11-06T08:34:49.668Z,11.58
2018-11-06T08:37:20.009Z,11.44
2018-11-06T08:39:50.729Z,11.60
2018-11-06T08:42:20.664Z,11.68
2018-11-06T08:44:51.940Z,11.58
2018-11-06T08:47:22.537Z,11.63
2018-11-06T08:49:52.778Z,11.71
2018-11-06T08:52:25.691Z,11.85
2018-11-06T08:54:56.855Z,11.54
2018-11-06T08:57:27.494Z,11.55
2018-11-06T08:59:58.385Z,11.98
2018-11-06T09:02:28.193Z,11.89
2018-11-06T09:04:59.176Z,11.69
2018-11-06T09:07:29.866Z,12.16
2018-11-06T09:10:00.416Z,11.94
2018-11-06T09:12:32.076Z,11.69
2018-11-06T09:15:02.502Z,11.82
2018-11-06T09:17:34.148Z,11.91
2018-11-06T09:20:04.772Z,12.01
2018-11-06T09:22:35.729Z,12.14
2018-11-06T09:25:08.864Z,12.18
2018-11-06T09:27:39.702Z,11.89
2018-11-06T09:30:13.241Z,12.18
2018-11-06T09:32:46.292Z,11.82
2018-11-06T09:35:19.000Z,11.77
2018-11-06T09:37:50.111Z,12.29
2018-11-06T09:40:21.490Z,12.56
2018-11-06T09:42:53.041Z,12.44
2018-11-06T09:45:23.338Z,12.51
2018-11-06T09:47:54.220Z,12.62
2018-11-06T09:50:33.939Z,12.45
2018-11-06T09:53:05.714Z,12.74
2018-11-06T09:55:40.633Z,12.94
2018-11-06T09:58:12.418Z,12.99
2018-11-06T10:00:44.147Z,13.15
2018-11-06T10:03:15.868Z,13.47
2018-11-06T10:05:47.435Z,13.58
2018-11-06T10:08:19.451Z,13.51
2018-11-06T10:10:50.166Z,13.71
2018-11-06T10:13:20.195Z,13.92
2018-11-06T10:15:50.805Z,14.17
2018-11-06T10:18:21.970Z,13.99
2018-11-06T10:20:52.599Z,13.54
2018-11-06T10:23:23.895Z,13.85
2018-11-06T10:25:55.024Z,14.06
2018-11-06T10:28:26.909Z,13.57
2018-11-06T10:30:58.948Z,13.81
2018-11-06T10:33:30.051Z,13.71
2018-11-06T10:36:01.008Z,13.85
2018-11-06T10:38:31.246Z,14.07
2018-11-06T10:41:01.484Z,14.11
2018-11-06T10:43:31.808Z,14.22
2018-11-06T10:46:02.174Z,14.30
2018-11-06T10:48:36.640Z,14.13
2018-11-06T10:51:07.596Z,14.26
2018-11-06T10:53:37.772Z,14.40
2018-11-06T10:56:08.167Z,14.19
2018-11-06T10:58:38.450Z,14.27
2018-11-06T11:01:13.972Z,14.73
2018-11-06T11:03:49.545Z,14.62
2018-11-06T11:06:20.041Z,14.66
2018-11-06T11:08:50.959Z,15.23
2018-11-06T11:11:21.367Z,15.45
2018-11-06T11:13:51.314Z,15.00
2018-11-06T11:16:22.022Z,15.15
2018-11-06T11:18:52.031Z,15.22
2018-11-06T11:21:22.008Z,15.54
2018-11-06T11:23:52.544Z,15.50
2018-11-06T11:26:22.991Z,15.55
2018-11-06T11:28:54.433Z,15.50
2018-11-06T11:31:25.159Z,15.66
2018-11-06T11:33:56.474Z,15.52
2018-11-06T11:36:26.631Z,15.87
2018-11-06T11:38:56.980Z,15.87
2018-11-06T11:41:28.034Z,15.68
2018-11-06T11:43:59.745Z,16.09
2018-11-06T11:46:30.103Z,16.14
2018-11-06T11:49:02.985Z,16.00
2018-11-06T11:51:33.555Z,16.01
2018-11-06T11:54:06.446Z,15.77
2018-11-06T11:56:37.850Z,16.18
2018-11-06T11:59:09.657Z,16.36
2018-11-06T12:01:40.721Z,16.77
2018-11-06T12:04:11.648Z,16.85
2018-11-06T12:06:42.582Z,17.06
2018-11-06T12:09:14.568Z,17.08
2018-11-06T12:11:46.035Z,16.63
2018-11-06T12:14:17.977Z,16.61
2018-11-06T12:16:48.610Z,16.67
2018-11-06T12:19:19.845Z,17.09
2018-11-06T12:21:51.545Z,17.27
2018-11-06T12:24:23.371Z,17.33
2018-11-06T12:26:55.420Z,17.28
2018-11-06T12:29:27.569Z,17.27
2018-11-06T12:31:58.545Z,17.96
2018-11-06T12:34:29.438Z,18.06
2018-11-06T12:37:00.168Z,18.29
2018-11-06T12:39:32.084Z,17.90
2018-11-06T12:42:03.214Z,17.81
2018-11-06T12:44:34.211Z,17.82
2018-11-06T12:47:04.325Z,18.14
2018-11-06T12:49:34.176Z,18.36
2018-11-06T12:52:04.386Z,18.32
2018-11-06T12:54:34.197Z,18.87
2018-11-06T12:57:03.069Z,19.02
2018-11-06T12:59:31.442Z,18.67
2018-11-06T13:02:05.230Z,19.27
2018-11-06T13:04:51.306Z,19.61
2018-11-06T13:07:40.881Z,19.72
2018-11-06T13:10:15.186Z,19.41
2018-11-06T13:12:47.039Z,19.53
2018-11-06T13:15:19.888Z,19.29
2018-11-06T13:17:50.476Z,19.59
2018-11-06T13:20:22.118Z,18.80
2018-11-06T13:22:53.353Z,18.07
2018-11-06T13:25:25.571Z,18.25
2018-11-06T13:27:56.937Z,18.66
2018-11-06T13:30:28.507Z,18.69
2018-11-06T13:32:59.871Z,18.81
2018-11-06T13:35:30.978Z,18.37
2018-11-06T13:38:02.723Z,18.17
2018-11-06T13:43:47.392Z,18.28
2018-11-06T13:46:33.288Z,18.35
2018-11-06T13:49:24.126Z,18.51
2018-11-06T13:52:13.438Z,18.25
2018-11-06T13:54:56.635Z,18.33
2018-11-06T13:57:32.286Z,18.57
2018-11-06T14:00:05.302Z,18.27
2018-11-06T14:02:36.791Z,18.04
2018-11-06T14:05:08.968Z,18.25
2018-11-06T14:07:41.176Z,18.62
2018-11-06T14:10:12.730Z,18.95
2018-11-06T14:12:45.929Z,18.40
2018-11-06T14:15:18.411Z,18.30
2018-11-06T14:17:52.297Z,18.31
2018-11-06T14:20:24.416Z,18.70
2018-11-06T14:22:56.675Z,18.70
2018-11-06T14:25:29.335Z,18.34
2018-11-06T14:28:01.282Z,18.27
2018-11-06T14:30:34.066Z,18.51
2018-11-06T14:33:06.160Z,18.66
2018-11-06T14:35:38.372Z,18.48
2018-11-06T14:38:10.393Z,17.72
2018-11-06T14:40:42.591Z,17.47
2018-11-06T14:43:15.079Z,17.68
2018-11-06T14:45:48.035Z,17.59
2018-11-06T14:48:21.056Z,17.60
2018-11-06T14:50:53.686Z,17.67
2018-11-06T14:53:24.198Z,17.07
2018-11-06T14:55:54.433Z,16.71
2018-11-06T14:58:25.641Z,16.68
2018-11-06T15:00:57.627Z,16.57
2018-11-06T15:03:29.297Z,16.90
2018-11-06T15:06:00.800Z,16.64
2018-11-06T15:08:32.790Z,16.39
2018-11-06T15:11:03.860Z,16.17
2018-11-06T15:13:38.205Z,16.01
2018-11-06T15:16:10.225Z,16.03
2018-11-06T15:18:44.487Z,15.96
2018-11-06T15:21:20.346Z,15.87
2018-11-06T15:23:52.520Z,15.76
2018-11-06T15:26:23.399Z,15.52
2018-11-06T15:28:54.864Z,15.29
2018-11-06T15:31:25.913Z,15.22
2018-11-06T15:33:57.348Z,15.08
2018-11-06T15:36:28.939Z,14.79
2018-11-06T15:38:57.944Z,14.66
2018-11-06T15:41:28.621Z,14.51
2018-11-06T15:44:01.996Z,14.34
2018-11-06T15:46:33.827Z,14.17
2018-11-06T15:49:05.406Z,14.11
2018-11-06T15:51:37.507Z,13.99
2018-11-06T15:54:09.052Z,13.93
2018-11-06T15:56:41.477Z,13.87
2018-11-06T15:59:12.450Z,13.72
2018-11-06T16:01:43.277Z,13.59
2018-11-06T16:04:15.685Z,13.54
2018-11-06T16:06:47.134Z,13.66
2018-11-06T16:09:19.370Z,13.57
2018-11-06T16:11:51.269Z,13.81
2018-11-06T16:14:23.340Z,13.74
2018-11-06T16:16:53.057Z,13.78
2018-11-06T16:19:24.099Z,13.74
2018-11-06T16:21:54.507Z,13.73
2018-11-06T16:24:25.746Z,13.70
2018-11-06T16:26:55.751Z,13.67
2018-11-06T16:29:25.098Z,13.59
2018-11-06T16:31:56.539Z,13.53
2018-11-06T16:34:28.127Z,13.40
2018-11-06T16:36:56.695Z,13.30
2018-11-06T16:39:26.768Z,13.39
2018-11-06T16:41:55.837Z,13.53
2018-11-06T16:44:28.133Z,13.65
2018-11-06T16:46:59.239Z,13.69
2018-11-06T16:49:27.832Z,13.71
2018-11-06T16:51:57.819Z,13.72
2018-11-06T16:54:27.900Z,13.66
2018-11-06T16:56:57.580Z,13.61
2018-11-06T16:59:26.899Z,13.58
2018-11-06T17:01:57.582Z,13.68
2018-11-06T17:04:28.706Z,13.55
2018-11-06T17:06:59.188Z,13.66
2018-11-06T17:09:27.866Z,13.39
2018-11-06T17:11:57.113Z,13.23
2018-11-06T17:14:27.968Z,13.14
2018-11-06T17:16:57.183Z,13.09
2018-11-06T17:19:26.100Z,13.02
2018-11-06T17:21:54.962Z,13.08
2018-11-06T17:24:24.285Z,12.96
2018-11-06T17:26:53.071Z,12.91
2018-11-06T17:29:23.034Z,12.96
2018-11-06T17:31:51.839Z,12.89
2018-11-06T17:34:20.791Z,12.73
2018-11-06T17:36:49.328Z,12.65
2018-11-06T17:39:18.613Z,12.65
2018-11-06T17:41:47.433Z,12.59
2018-11-06T17:44:16.872Z,12.51
2018-11-06T17:46:45.667Z,12.45
2018-11-06T17:49:14.396Z,12.37
2018-11-06T17:51:43.478Z,12.27
2018-11-06T17:54:12.273Z,12.23
2018-11-06T17:56:40.885Z,12.17
2018-11-06T17:59:09.517Z,12.20
2018-11-06T18:01:38.035Z,12.19
2018-11-06T18:04:06.865Z,12.18
2018-11-06T18:06:35.317Z,12.09
2018-11-06T18:09:06.503Z,12.07
2018-11-06T18:11:36.248Z,11.90
2018-11-06T18:14:05.744Z,11.87
2018-11-06T18:16:35.271Z,11.90
2018-11-06T18:19:03.788Z,11.83
2018-11-06T18:21:32.922Z,11.86
2018-11-06T18:24:02.025Z,11.90
2018-11-06T18:26:32.339Z,11.84
2018-11-06T18:29:01.068Z,11.84
2018-11-06T18:31:29.682Z,11.96
2018-11-06T18:33:58.115Z,11.95
2018-11-06T18:36:27.473Z,11.87
2018-11-06T18:38:55.968Z,11.85
2018-11-06T18:41:24.801Z,11.87
2018-11-06T18:43:53.727Z,11.82
2018-11-06T18:46:22.165Z,11.79
2018-11-06T18:48:50.889Z,11.80
2018-11-06T18:51:19.597Z,11.78
2018-11-06T18:53:48.734Z,11.72
2018-11-06T18:56:17.238Z,11.63
2018-11-06T18:58:45.623Z,11.60
2018-11-06T19:01:15.134Z,11.58
2018-11-06T19:03:43.860Z,11.60
2018-11-06T19:06:12.582Z,11.63
2018-11-06T19:08:41.938Z,11.69
2018-11-06T19:11:11.084Z,11.61
2018-11-06T19:13:40.312Z,11.56
2018-11-06T19:16:09.027Z,11.52
2018-11-06T19:18:38.649Z,11.60
2018-11-06T19:21:07.657Z,11.53
2018-11-06T19:23:36.177Z,11.49
2018-11-06T19:26:05.128Z,11.44
2018-11-06T19:28:33.611Z,11.35
2018-11-06T19:31:02.080Z,11.29
2018-11-06T19:33:30.714Z,11.27
2018-11-06T19:35:59.272Z,11.24
2018-11-06T19:38:28.784Z,11.19
2018-11-06T19:40:57.336Z,11.09
2018-11-06T19:43:32.720Z,10.98
2018-11-06T19:46:01.653Z,10.97
2018-11-06T19:48:31.682Z,10.99
2018-11-06T19:51:00.213Z,10.92
2018-11-06T19:53:30.759Z,10.87
2018-11-06T19:55:59.441Z,10.85
2018-11-06T19:58:28.340Z,10.79
2018-11-06T20:00:57.355Z,10.77
2018-11-06T20:03:28.437Z,10.79
2018-11-06T20:05:57.412Z,10.72
2018-11-06T20:08:26.746Z,10.62
2018-11-06T20:10:56.297Z,10.63
2018-11-06T20:13:24.865Z,10.56
2018-11-06T20:15:54.628Z,10.53
2018-11-06T20:18:23.049Z,10.54
2018-11-06T20:20:52.555Z,10.54
2018-11-06T20:23:21.487Z,10.46
2018-11-06T20:25:50.405Z,10.41
2018-11-06T20:28:22.725Z,10.43
2018-11-06T20:30:51.310Z,10.42
2018-11-06T20:33:20.225Z,10.37
2018-11-06T20:35:49.846Z,10.32
2018-11-06T20:38:18.404Z,10.27
2018-11-06T20:40:46.792Z,10.27
2018-11-06T20:43:15.301Z,10.22
2018-11-06T20:45:43.726Z,10.25
2018-11-06T20:48:12.238Z,10.24
2018-11-06T20:50:40.770Z,10.22
2018-11-06T20:53:10.235Z,10.15
2018-11-06T20:55:38.943Z,10.18
2018-11-06T20:58:07.357Z,10.18
2018-11-06T21:00:35.904Z,10.15
2018-11-06T21:03:04.590Z,10.11
2018-11-06T21:05:33.085Z,10.16
2018-11-06T21:08:01.571Z,10.18
2018-11-06T21:10:31.051Z,10.18
2018-11-06T21:12:59.738Z,10.13
2018-11-06T21:15:28.654Z,10.06
2018-11-06T21:17:57.568Z,10.12
2018-11-06T21:20:26.093Z,10.11
2018-11-06T21:22:54.557Z,10.11
2018-11-06T21:25:23.189Z,10.14
2018-11-06T21:27:51.666Z,10.20
2018-11-06T21:30:20.901Z,10.12
2018-11-06T21:32:50.876Z,10.07
2018-11-06T21:35:19.405Z,10.06
2018-11-06T21:37:48.429Z,10.05
2018-11-06T21:40:18.359Z,9.99
2018-11-06T21:42:47.454Z,9.92
2018-11-06T21:45:16.603Z,9.95
2018-11-06T21:47:45.916Z,9.92
2018-11-06T21:50:15.321Z,9.91
2018-11-06T21:52:43.769Z,9.86
2018-11-06T21:55:13.856Z,9.83
2018-11-06T21:57:42.665Z,9.88
2018-11-06T22:00:15.556Z,9.85
2018-11-06T22:02:44.420Z,9.85
2018-11-06T22:05:14.456Z,9.76
2018-11-06T22:07:43.693Z,9.69
2018-11-06T22:10:13.396Z,9.69
2018-11-06T22:12:43.123Z,9.64
2018-11-06T22:15:12.663Z,9.61
2018-11-06T22:17:41.750Z,9.57
2018-11-06T22:20:16.645Z,9.63
2018-11-06T22:22:45.648Z,9.57
2018-11-06T22:25:14.259Z,9.55
2018-11-06T22:27:43.623Z,9.52
2018-11-06T22:30:13.517Z,9.49
2018-11-06T22:32:42.920Z,9.47
2018-11-06T22:35:12.871Z,9.42
2018-11-06T22:37:41.891Z,9.47
2018-11-06T22:40:12.151Z,9.47
2018-11-06T22:42:41.036Z,9.44
2018-11-06T22:45:12.658Z,9.51
2018-11-06T22:47:42.073Z,9.48
2018-11-06T22:50:12.142Z,9.46
2018-11-06T22:52:40.859Z,9.31
2018-11-06T22:55:09.656Z,9.27
2018-11-06T22:57:38.378Z,9.24
2018-11-06T23:00:14.468Z,9.26
2018-11-06T23:02:43.454Z,9.36
2018-11-06T23:05:12.367Z,9.30
2018-11-06T23:07:46.495Z,9.34
2018-11-06T23:10:14.931Z,9.30
2018-11-06T23:12:44.563Z,9.32
2018-11-06T23:15:13.269Z,9.17
2018-11-06T23:17:43.392Z,9.13
2018-11-06T23:20:12.076Z,9.09
2018-11-06T23:22:40.721Z,9.05
2018-11-06T23:25:09.639Z,9.06
2018-11-06T23:27:39.077Z,9.05
2018-11-06T23:30:11.081Z,9.05
2018-11-06T23:32:41.091Z,9.05
2018-11-06T23:35:10.428Z,9.07
2018-11-06T23:37:40.011Z,9.04
2018-11-06T23:40:09.441Z,9.04
2018-11-06T23:42:38.348Z,9.23
2018-11-06T23:45:07.647Z,9.07
2018-11-06T23:47:36.471Z,9.06
2018-11-06T23:50:06.417Z,9.11
2018-11-06T23:52:34.826Z,9.13
2018-11-06T23:55:03.309Z,9.10
2018-11-06T23:57:31.663Z,9.07
